createdAt,value
2023-09-08T00:00:49.115Z,24.00
2023-09-08T00:03:16.028Z,23.99
2023-09-08T00:05:43.219Z,23.99
2023-09-08T00:08:10.026Z,23.98
2023-09-08T00:10:36.836Z,23.99
2023-09-08T00:13:03.701Z,23.96
2023-09-08T00:15:30.536Z,23.96
2023-09-08T00:17:58.790Z,23.93
2023-09-08T00:20:25.757Z,23.94
2023-09-08T00:22:52.536Z,23.91
2023-09-08T00:25:19.402Z,23.90
2023-09-08T00:27:46.158Z,23.90
2023-09-08T00:30:13.363Z,23.88
2023-09-08T00:32:40.209Z,23.87
2023-09-08T00:35:08.716Z,23.86
2023-09-08T00:37:35.570Z,23.84
2023-09-08T00:40:02.372Z,23.85
2023-09-08T00:42:29.224Z,23.83
2023-09-08T00:44:56.036Z,23.81
2023-09-08T00:47:22.966Z,23.80
2023-09-08T00:49:52.882Z,23.78
2023-09-08T00:52:20.112Z,23.79
2023-09-08T00:54:47.023Z,23.77
2023-09-08T00:57:14.066Z,23.77
2023-09-08T00:59:41.525Z,23.75
2023-09-08T01:02:08.329Z,23.75
2023-09-08T01:04:35.248Z,23.73
2023-09-08T01:07:03.210Z,23.73
2023-09-08T01:09:30.459Z,23.71
2023-09-08T01:12:02.011Z,23.71
2023-09-08T01:14:28.969Z,23.71
2023-09-08T01:16:55.830Z,23.72
2023-09-08T01:19:23.306Z,23.73
2023-09-08T01:22:27.552Z,23.74
2023-09-08T01:25:12.916Z,23.71
2023-09-08T01:27:45.166Z,23.72
2023-09-08T01:30:14.268Z,23.72
2023-09-08T01:32:42.118Z,23.70
2023-09-08T01:35:09.462Z,23.70
2023-09-08T01:37:36.249Z,23.68
2023-09-08T01:40:03.165Z,23.68
2023-09-08T01:42:30.000Z,23.68
2023-09-08T01:44:56.750Z,23.67
2023-09-08T01:47:23.509Z,23.66
2023-09-08T01:49:50.270Z,23.63
2023-09-08T01:52:17.044Z,23.63
2023-09-08T01:54:43.870Z,23.58
2023-09-08T01:57:11.016Z,23.57
2023-09-08T01:59:38.363Z,23.58
2023-09-08T02:02:05.749Z,23.54
2023-09-08T02:04:32.791Z,23.54
2023-09-08T02:06:59.829Z,23.53
2023-09-08T02:09:34.327Z,23.53
2023-09-08T02:12:01.668Z,23.52
2023-09-08T02:14:28.976Z,23.50
2023-09-08T02:16:56.919Z,23.51
2023-09-08T02:19:24.630Z,23.51
2023-09-08T02:21:51.465Z,23.51
2023-09-08T02:24:18.378Z,23.50
2023-09-08T02:26:45.309Z,23.51
2023-09-08T02:29:12.129Z,23.48
2023-09-08T02:31:38.916Z,23.48
2023-09-08T02:34:05.901Z,23.48
2023-09-08T02:36:32.890Z,23.47
2023-09-08T02:38:59.737Z,23.46
2023-09-08T02:41:26.528Z,23.44
2023-09-08T02:43:53.394Z,23.44
2023-09-08T02:46:20.250Z,23.42
2023-09-08T02:48:47.270Z,23.42
2023-09-08T02:51:14.125Z,23.41
2023-09-08T02:53:40.912Z,23.40
2023-09-08T02:56:07.752Z,23.40
2023-09-08T02:58:35.275Z,23.38
2023-09-08T03:01:21.806Z,23.38
2023-09-08T03:03:49.753Z,23.37
2023-09-08T03:06:21.351Z,23.36
2023-09-08T03:08:48.206Z,23.35
2023-09-08T03:11:15.022Z,23.33
2023-09-08T03:13:41.901Z,23.33
2023-09-08T03:16:10.095Z,23.33
2023-09-08T03:18:38.371Z,23.31
2023-09-08T03:21:11.009Z,23.30
2023-09-08T03:23:38.724Z,23.30
2023-09-08T03:26:06.085Z,23.26
2023-09-08T03:28:34.262Z,23.26
2023-09-08T03:31:02.409Z,23.25
2023-09-08T03:33:29.470Z,23.24
2023-09-08T03:35:56.785Z,23.24
2023-09-08T03:38:24.445Z,23.22
2023-09-08T03:40:51.246Z,23.22
2023-09-08T03:43:18.058Z,23.22
2023-09-08T03:45:45.063Z,23.19
2023-09-08T03:48:12.542Z,23.19
2023-09-08T03:50:39.713Z,23.17
2023-09-08T03:53:06.683Z,23.16
2023-09-08T03:55:33.527Z,23.16
2023-09-08T03:58:00.274Z,23.15
2023-09-08T04:00:27.196Z,23.14
2023-09-08T04:02:54.604Z,23.12
2023-09-08T04:05:22.024Z,23.11
2023-09-08T04:07:49.154Z,23.10
2023-09-08T04:10:16.085Z,23.09
2023-09-08T04:12:43.023Z,23.08
2023-09-08T04:15:10.682Z,23.08
2023-09-08T04:17:38.779Z,23.08
2023-09-08T04:20:06.679Z,23.07
2023-09-08T04:22:34.377Z,23.06
2023-09-08T04:25:02.094Z,23.06
2023-09-08T04:27:28.858Z,23.04
2023-09-08T04:29:55.788Z,23.04
2023-09-08T04:32:22.694Z,23.00
2023-09-08T04:34:50.517Z,22.98
2023-09-08T04:37:18.044Z,22.97
2023-09-08T04:39:45.483Z,22.97
2023-09-08T04:42:12.508Z,22.98
2023-09-08T04:44:39.334Z,22.97
2023-09-08T04:47:06.816Z,22.97
2023-09-08T04:49:33.626Z,22.94
2023-09-08T04:52:00.423Z,22.92
2023-09-08T04:54:28.597Z,22.93
2023-09-08T04:57:01.198Z,22.92
2023-09-08T04:59:40.583Z,22.92
2023-09-08T05:02:08.030Z,22.90
2023-09-08T05:04:35.205Z,22.90
2023-09-08T05:07:02.183Z,22.90
2023-09-08T05:09:28.971Z,22.90
2023-09-08T05:11:55.905Z,22.89
2023-09-08T05:14:23.011Z,22.89
2023-09-08T05:16:57.023Z,22.87
2023-09-08T05:19:24.836Z,22.85
2023-09-08T05:21:53.396Z,22.85
2023-09-08T05:24:20.346Z,22.85
2023-09-08T05:26:47.163Z,22.84
2023-09-08T05:29:14.606Z,22.83
2023-09-08T05:31:41.465Z,22.84
2023-09-08T05:34:08.265Z,22.83
2023-09-08T05:36:38.154Z,22.84
2023-09-08T05:39:06.008Z,22.83
2023-09-08T05:41:33.706Z,22.83
2023-09-08T05:44:01.717Z,22.83
2023-09-08T05:46:28.739Z,22.82
2023-09-08T05:48:55.730Z,22.81
2023-09-08T05:51:23.916Z,22.82
2023-09-08T05:53:50.929Z,22.80
2023-09-08T05:56:21.116Z,22.81
2023-09-08T05:58:48.492Z,22.81
2023-09-08T06:01:16.847Z,22.81
2023-09-08T06:03:44.275Z,22.80
2023-09-08T06:06:11.265Z,22.80
2023-09-08T06:08:38.133Z,22.80
2023-09-08T06:11:05.171Z,22.81
2023-09-08T06:13:32.092Z,22.79
2023-09-08T06:15:58.839Z,22.78
2023-09-08T06:18:29.278Z,22.80
2023-09-08T06:20:56.191Z,22.79
2023-09-08T06:23:23.084Z,22.78
2023-09-08T06:25:50.967Z,22.78
2023-09-08T06:28:17.830Z,22.78
2023-09-08T06:30:45.566Z,22.78
2023-09-08T06:33:12.595Z,22.78
2023-09-08T06:35:40.490Z,22.79
2023-09-08T06:38:07.320Z,22.79
2023-09-08T06:40:34.141Z,22.80
2023-09-08T06:43:02.992Z,22.80
2023-09-08T06:45:31.024Z,22.78
2023-09-08T06:47:58.554Z,22.78
2023-09-08T06:50:26.091Z,22.78
2023-09-08T06:52:53.518Z,22.79
2023-09-08T06:55:20.968Z,22.79
2023-09-08T06:57:48.004Z,22.78
2023-09-08T07:00:15.791Z,22.77
2023-09-08T07:02:43.201Z,22.77
2023-09-08T07:05:10.576Z,22.78
2023-09-08T07:07:37.632Z,22.77
2023-09-08T07:10:05.648Z,22.76
2023-09-08T07:12:32.500Z,22.76
2023-09-08T07:15:00.992Z,22.76
2023-09-08T07:17:28.347Z,22.76
2023-09-08T07:19:55.406Z,22.77
2023-09-08T07:22:22.175Z,22.76
2023-09-08T07:24:49.072Z,22.75
2023-09-08T07:27:15.918Z,22.74
2023-09-08T07:29:43.481Z,22.72
2023-09-08T07:32:10.771Z,22.72
2023-09-08T07:34:37.617Z,22.72
2023-09-08T07:37:04.738Z,22.74
2023-09-08T07:39:31.623Z,22.75
2023-09-08T07:42:01.257Z,22.76
2023-09-08T07:44:28.996Z,22.76
2023-09-08T07:46:57.887Z,22.69
2023-09-08T07:49:25.534Z,22.67
2023-09-08T07:51:52.492Z,22.70
2023-09-08T07:54:20.605Z,22.71
2023-09-08T07:56:48.365Z,22.69
2023-09-08T07:59:15.416Z,22.71
2023-09-08T08:01:42.334Z,22.70
2023-09-08T08:04:09.312Z,22.72
2023-09-08T08:06:37.027Z,22.70
2023-09-08T08:09:04.183Z,22.68
2023-09-08T08:11:31.141Z,22.71
2023-09-08T08:13:58.319Z,22.71
2023-09-08T08:16:25.755Z,22.73
2023-09-08T08:18:53.132Z,22.72
2023-09-08T08:21:20.207Z,22.70
2023-09-08T08:23:47.037Z,22.73
2023-09-08T08:26:13.804Z,22.74
2023-09-08T08:28:40.657Z,22.73
2023-09-08T08:31:07.661Z,22.75
2023-09-08T08:33:34.554Z,22.75
2023-09-08T08:36:01.954Z,22.76
2023-09-08T08:38:29.061Z,22.73
2023-09-08T08:40:56.019Z,22.74
2023-09-08T08:43:23.921Z,22.75
2023-09-08T08:45:51.938Z,22.77
2023-09-08T08:48:22.327Z,22.78
2023-09-08T08:50:49.438Z,22.79
2023-09-08T08:53:18.734Z,22.80
2023-09-08T08:55:46.924Z,22.81
2023-09-08T08:58:15.939Z,22.82
2023-09-08T09:00:43.320Z,22.82
2023-09-08T09:03:14.843Z,22.83
2023-09-08T09:05:47.546Z,22.85
2023-09-08T09:08:17.378Z,22.85
2023-09-08T09:10:44.532Z,22.84
2023-09-08T09:13:11.339Z,22.86
2023-09-08T09:15:38.451Z,22.87
2023-09-08T09:18:09.309Z,22.89
2023-09-08T09:20:36.373Z,22.90
2023-09-08T09:23:03.854Z,22.91
2023-09-08T09:25:32.790Z,22.93
2023-09-08T09:28:04.368Z,22.94
2023-09-08T09:30:48.753Z,22.96
2023-09-08T09:33:16.017Z,22.97
2023-09-08T09:35:54.569Z,22.97
2023-09-08T09:38:22.626Z,23.00
2023-09-08T09:40:50.492Z,22.99
2023-09-08T09:43:18.649Z,23.01
2023-09-08T09:45:45.999Z,23.03
2023-09-08T09:48:13.579Z,23.05
2023-09-08T09:50:42.738Z,23.06
2023-09-08T09:53:12.530Z,23.08
2023-09-08T09:55:41.438Z,23.12
2023-09-08T09:58:09.962Z,23.14
2023-09-08T10:00:38.397Z,23.14
2023-09-08T10:03:06.148Z,23.17
2023-09-08T10:05:33.181Z,23.17
2023-09-08T10:08:00.224Z,23.20
2023-09-08T10:10:29.979Z,23.23
2023-09-08T10:13:01.991Z,23.25
2023-09-08T10:15:30.524Z,23.27
2023-09-08T10:18:01.432Z,23.28
2023-09-08T10:20:30.063Z,23.30
2023-09-08T10:23:15.470Z,23.33
2023-09-08T10:25:55.115Z,23.38
2023-09-08T10:28:25.765Z,23.35
2023-09-08T10:30:53.166Z,23.36
2023-09-08T10:33:21.514Z,23.37
2023-09-08T10:35:48.725Z,23.39
2023-09-08T10:38:29.941Z,23.43
2023-09-08T10:41:18.680Z,23.49
2023-09-08T10:43:46.761Z,23.52
2023-09-08T10:46:24.658Z,23.55
2023-09-08T10:48:53.983Z,23.57
2023-09-08T10:51:23.425Z,23.61
2023-09-08T10:53:53.624Z,23.67
2023-09-08T10:56:20.451Z,23.67
2023-09-08T10:58:53.893Z,23.70
2023-09-08T11:01:28.686Z,23.73
2023-09-08T11:03:56.174Z,23.80
2023-09-08T11:06:31.908Z,23.80
2023-09-08T11:09:08.125Z,23.84
2023-09-08T11:11:35.227Z,23.89
2023-09-08T11:14:02.706Z,23.91
2023-09-08T11:16:33.020Z,23.96
2023-09-08T11:19:00.119Z,23.99
2023-09-08T11:21:27.077Z,24.01
2023-09-08T11:23:54.203Z,24.03
2023-09-08T11:26:21.114Z,24.05
2023-09-08T11:28:50.561Z,24.08
2023-09-08T11:31:17.727Z,24.12
2023-09-08T11:33:44.572Z,24.13
2023-09-08T11:36:16.342Z,24.16
2023-09-08T11:38:44.919Z,24.18
2023-09-08T11:41:11.943Z,24.23
2023-09-08T11:43:38.988Z,24.26
2023-09-08T11:46:06.371Z,24.27
2023-09-08T11:48:34.102Z,24.32
2023-09-08T11:51:01.172Z,24.34
2023-09-08T11:53:28.625Z,24.38
2023-09-08T11:55:56.030Z,24.44
2023-09-08T11:58:23.728Z,24.42
2023-09-08T12:00:50.823Z,24.42
2023-09-08T12:03:17.934Z,24.47
2023-09-08T12:05:53.699Z,24.51
2023-09-08T12:08:20.847Z,24.52
2023-09-08T12:10:47.724Z,24.54
2023-09-08T12:13:15.376Z,24.60
2023-09-08T12:15:45.257Z,24.62
2023-09-08T12:18:14.226Z,24.63
2023-09-08T12:20:41.685Z,24.63
2023-09-08T12:23:16.922Z,24.66
2023-09-08T12:25:47.971Z,24.69
2023-09-08T12:28:15.131Z,24.71
2023-09-08T12:30:42.169Z,24.72
2023-09-08T12:33:09.080Z,24.75
2023-09-08T12:35:36.266Z,24.78
2023-09-08T12:38:07.335Z,24.78
2023-09-08T12:40:39.012Z,24.79
2023-09-08T12:43:27.426Z,24.82
2023-09-08T12:45:53.510Z,24.87
2023-09-08T12:48:20.338Z,24.92
2023-09-08T12:50:49.458Z,24.93
2023-09-08T12:53:19.374Z,24.97
2023-09-08T12:55:46.661Z,24.99
2023-09-08T12:58:13.511Z,25.00
2023-09-08T13:00:40.338Z,25.02
2023-09-08T13:03:07.204Z,25.06
2023-09-08T13:05:37.189Z,25.09
2023-09-08T13:08:04.207Z,25.08
2023-09-08T13:10:31.164Z,25.12
2023-09-08T13:12:58.012Z,25.16
2023-09-08T13:15:24.931Z,25.17
2023-09-08T13:17:52.643Z,25.23
2023-09-08T13:20:19.806Z,25.24
2023-09-08T13:22:46.897Z,25.25
2023-09-08T13:25:13.899Z,25.29
2023-09-08T13:27:45.833Z,25.31
2023-09-08T13:30:17.089Z,25.34
2023-09-08T13:32:45.744Z,25.36
2023-09-08T13:35:12.926Z,25.39
2023-09-08T13:37:39.836Z,25.41
2023-09-08T13:40:08.157Z,25.45
2023-09-08T13:42:35.817Z,25.49
2023-09-08T13:45:02.826Z,25.49
2023-09-08T13:47:29.960Z,25.51
2023-09-08T13:49:58.975Z,25.55
2023-09-08T13:52:28.448Z,25.55
2023-09-08T13:57:28.794Z,25.58
2023-09-08T13:59:57.546Z,25.61
2023-09-08T14:04:56.381Z,25.68
2023-09-08T14:07:28.210Z,25.68
2023-09-08T14:10:07.986Z,25.71
2023-09-08T14:12:42.990Z,25.72
2023-09-08T14:15:10.245Z,25.75
2023-09-08T14:17:37.123Z,25.78
2023-09-08T14:20:04.989Z,25.83
2023-09-08T14:22:31.802Z,25.89
2023-09-08T14:24:58.725Z,25.90
2023-09-08T14:27:25.682Z,25.90
2023-09-08T14:29:52.529Z,25.92
2023-09-08T14:32:19.692Z,25.99
2023-09-08T14:34:46.489Z,25.95
2023-09-08T14:37:13.326Z,25.98
2023-09-08T14:39:40.202Z,26.00
2023-09-08T14:42:07.079Z,26.04
2023-09-08T14:44:34.071Z,26.05
2023-09-08T14:47:00.976Z,26.07
2023-09-08T14:49:27.750Z,26.09
2023-09-08T14:51:54.544Z,26.11
2023-09-08T14:54:21.470Z,26.13
2023-09-08T14:56:48.286Z,26.16
2023-09-08T14:59:15.038Z,26.17
2023-09-08T15:01:44.420Z,26.19
2023-09-08T15:04:11.636Z,26.21
2023-09-08T15:06:38.495Z,26.25
2023-09-08T15:09:05.457Z,26.26
2023-09-08T15:11:32.195Z,26.29
2023-09-08T15:13:58.984Z,26.32
2023-09-08T15:16:25.949Z,26.34
2023-09-08T15:18:53.260Z,26.35
2023-09-08T15:21:27.215Z,26.39
2023-09-08T15:23:54.187Z,26.41
2023-09-08T15:26:20.976Z,26.43
2023-09-08T15:28:47.740Z,26.47
2023-09-08T15:31:17.563Z,26.48
2023-09-08T15:33:44.704Z,26.47
2023-09-08T15:36:11.680Z,26.50
2023-09-08T15:38:38.615Z,26.53
2023-09-08T15:41:12.139Z,26.54
2023-09-08T15:43:42.857Z,26.54
2023-09-08T15:46:10.023Z,26.54
2023-09-08T15:48:38.140Z,26.56
2023-09-08T15:51:06.415Z,26.57
2023-09-08T15:53:33.388Z,26.58
2023-09-08T15:56:00.853Z,26.60
2023-09-08T15:58:27.693Z,26.61
2023-09-08T16:00:54.546Z,26.61
2023-09-08T16:03:21.593Z,26.63
2023-09-08T16:05:48.696Z,26.65
2023-09-08T16:08:15.529Z,26.62
2023-09-08T16:10:42.406Z,26.62
2023-09-08T16:13:09.234Z,26.64
2023-09-08T16:15:36.461Z,26.64
2023-09-08T16:18:04.994Z,26.64
2023-09-08T16:20:32.073Z,26.63
2023-09-08T16:22:59.730Z,26.65
2023-09-08T16:25:26.577Z,26.67
2023-09-08T16:27:53.432Z,26.66
2023-09-08T16:30:20.323Z,26.68
2023-09-08T16:32:47.403Z,26.67
2023-09-08T16:35:14.676Z,26.66
2023-09-08T16:37:41.466Z,26.65
2023-09-08T16:40:08.938Z,26.64
2023-09-08T16:42:35.779Z,26.62
2023-09-08T16:45:02.645Z,26.63
2023-09-08T16:47:29.519Z,26.64
2023-09-08T16:49:56.592Z,26.62
2023-09-08T16:52:24.881Z,26.61
2023-09-08T16:54:51.693Z,26.59
2023-09-08T16:57:18.562Z,26.57
2023-09-08T16:59:45.582Z,26.52
2023-09-08T17:02:12.527Z,26.53
2023-09-08T17:04:39.379Z,26.48
2023-09-08T17:07:06.189Z,26.45
2023-09-08T17:09:33.229Z,26.43
2023-09-08T17:12:00.214Z,26.40
2023-09-08T17:14:27.596Z,26.39
2023-09-08T17:16:54.346Z,26.37
2023-09-08T17:19:21.274Z,26.35
2023-09-08T17:21:48.137Z,26.32
2023-09-08T17:24:15.440Z,26.30
2023-09-08T17:26:42.295Z,26.29
2023-09-08T17:29:10.341Z,26.26
2023-09-08T17:31:37.390Z,26.25
2023-09-08T17:34:07.184Z,26.23
2023-09-08T17:36:34.103Z,26.20
2023-09-08T17:39:00.915Z,26.19
2023-09-08T17:41:27.708Z,26.17
2023-09-08T17:43:54.471Z,26.15
2023-09-08T17:46:21.352Z,26.12
2023-09-08T17:48:48.314Z,26.10
2023-09-08T17:51:15.197Z,26.07
2023-09-08T17:53:41.996Z,26.05
2023-09-08T17:56:08.851Z,26.02
2023-09-08T17:58:35.632Z,26.01
2023-09-08T18:01:02.523Z,26.00
2023-09-08T18:03:29.922Z,25.99
2023-09-08T18:05:56.995Z,25.96
2023-09-08T18:08:23.824Z,25.93
2023-09-08T18:10:50.656Z,25.91
2023-09-08T18:13:19.414Z,25.89
2023-09-08T18:15:46.575Z,25.88
2023-09-08T18:18:13.924Z,25.85
2023-09-08T18:20:40.757Z,25.85
2023-09-08T18:23:07.624Z,25.84
2023-09-08T18:25:34.556Z,25.82
2023-09-08T18:28:01.425Z,25.81
2023-09-08T18:30:28.390Z,25.80
2023-09-08T18:32:55.241Z,25.77
2023-09-08T18:35:22.051Z,25.78
2023-09-08T18:37:48.912Z,25.77
2023-09-08T18:40:15.861Z,25.74
2023-09-08T18:42:42.660Z,25.73
2023-09-08T18:45:09.838Z,25.70
2023-09-08T18:47:36.668Z,25.67
2023-09-08T18:50:03.462Z,25.67
2023-09-08T18:52:30.222Z,25.66
2023-09-08T18:54:56.957Z,25.66
2023-09-08T18:57:26.467Z,25.64
2023-09-08T18:59:53.279Z,25.64
2023-09-08T19:02:20.234Z,25.62
2023-09-08T19:04:47.316Z,25.61
2023-09-08T19:07:14.222Z,25.58
2023-09-08T19:09:41.020Z,25.57
2023-09-08T19:12:08.246Z,25.53
2023-09-08T19:14:35.104Z,25.49
2023-09-08T19:17:03.911Z,25.48
2023-09-08T19:19:30.721Z,25.45
2023-09-08T19:21:57.567Z,25.44
2023-09-08T19:24:25.468Z,25.45
2023-09-08T19:26:52.259Z,25.44
2023-09-08T19:29:20.241Z,25.44
2023-09-08T19:31:49.819Z,25.41
2023-09-08T19:34:16.587Z,25.43
2023-09-08T19:36:43.354Z,25.40
2023-09-08T19:39:10.280Z,25.38
2023-09-08T19:41:37.383Z,25.34
2023-09-08T19:44:05.031Z,25.34
2023-09-08T19:46:36.770Z,25.33
2023-09-08T19:49:04.413Z,25.32
2023-09-08T19:51:33.636Z,25.28
2023-09-08T19:54:01.532Z,25.25
2023-09-08T19:56:29.390Z,25.25
2023-09-08T19:58:56.314Z,25.23
2023-09-08T20:01:23.393Z,25.21
2023-09-08T20:03:50.193Z,25.18
2023-09-08T20:06:17.417Z,25.17
2023-09-08T20:08:44.673Z,25.17
2023-09-08T20:11:11.539Z,25.16
2023-09-08T20:13:38.818Z,25.15
2023-09-08T20:16:08.398Z,25.12
2023-09-08T20:18:36.323Z,25.11
2023-09-08T20:21:04.575Z,25.12
2023-09-08T20:23:32.787Z,25.09
2023-09-08T20:26:00.376Z,25.09
2023-09-08T20:28:27.331Z,25.09
2023-09-08T20:31:09.415Z,25.06
2023-09-08T20:33:41.837Z,25.04
2023-09-08T20:36:09.962Z,25.04
2023-09-08T20:38:37.008Z,25.03
2023-09-08T20:41:03.845Z,25.01
2023-09-08T20:43:30.756Z,25.01
2023-09-08T20:46:08.871Z,25.00
2023-09-08T20:48:41.055Z,24.96
2023-09-08T20:51:13.428Z,24.96
2023-09-08T20:53:42.166Z,24.95
2023-09-08T20:56:13.163Z,24.92
2023-09-08T20:58:41.904Z,24.90
2023-09-08T21:01:09.724Z,24.87
2023-09-08T21:03:38.163Z,24.86
2023-09-08T21:06:05.659Z,24.85
2023-09-08T21:08:32.797Z,24.82
2023-09-08T21:10:59.922Z,24.80
2023-09-08T21:13:27.008Z,24.77
2023-09-08T21:15:53.903Z,24.75
2023-09-08T21:18:20.949Z,24.72
2023-09-08T21:20:48.912Z,24.72
2023-09-08T21:23:16.897Z,24.72
2023-09-08T21:25:43.773Z,24.70
2023-09-08T21:28:10.709Z,24.68
2023-09-08T21:30:37.556Z,24.66
2023-09-08T21:33:04.775Z,24.65
2023-09-08T21:35:32.251Z,24.65
2023-09-08T21:37:59.265Z,24.64
2023-09-08T21:40:26.251Z,24.63
2023-09-08T21:42:53.156Z,24.61
2023-09-08T21:45:20.182Z,24.61
2023-09-08T21:47:51.540Z,24.61
2023-09-08T21:50:19.162Z,24.61
2023-09-08T21:52:46.197Z,24.58
2023-09-08T21:55:13.245Z,24.58
2023-09-08T21:57:43.039Z,24.57
2023-09-08T22:00:12.848Z,24.55
2023-09-08T22:02:39.829Z,24.55
2023-09-08T22:05:07.316Z,24.52
2023-09-08T22:07:34.377Z,24.51
2023-09-08T22:10:01.439Z,24.51
2023-09-08T22:12:28.340Z,24.48
2023-09-08T22:14:55.148Z,24.47
2023-09-08T22:17:21.949Z,24.45
2023-09-08T22:19:49.312Z,24.44
2023-09-08T22:22:16.195Z,24.43
2023-09-08T22:24:42.978Z,24.43
2023-09-08T22:27:09.732Z,24.43
2023-09-08T22:29:36.581Z,24.43
2023-09-08T22:32:03.566Z,24.44
2023-09-08T22:34:30.411Z,24.43
2023-09-08T22:36:57.321Z,24.41
2023-09-08T22:39:24.224Z,24.39
2023-09-08T22:41:51.177Z,24.38
2023-09-08T22:44:17.966Z,24.37
2023-09-08T22:46:44.985Z,24.37
2023-09-08T22:49:11.823Z,24.38
2023-09-08T22:51:38.569Z,24.36
2023-09-08T22:54:05.623Z,24.36
2023-09-08T22:56:33.528Z,24.35
2023-09-08T22:59:00.261Z,24.35
2023-09-08T23:01:27.416Z,24.35
2023-09-08T23:03:54.264Z,24.36
2023-09-08T23:06:21.101Z,24.34
2023-09-08T23:08:47.940Z,24.31
2023-09-08T23:11:14.924Z,24.31
2023-09-08T23:13:41.778Z,24.31
2023-09-08T23:16:13.534Z,24.30
2023-09-08T23:18:40.699Z,24.30
2023-09-08T23:21:08.162Z,24.28
2023-09-08T23:23:35.904Z,24.27
2023-09-08T23:26:04.707Z,24.29
2023-09-08T23:28:31.693Z,24.25
2023-09-08T23:30:59.290Z,24.24
2023-09-08T23:33:26.447Z,24.26
2023-09-08T23:35:53.501Z,24.25
2023-09-08T23:38:20.588Z,24.26
2023-09-08T23:40:47.426Z,24.22
2023-09-08T23:43:14.372Z,24.21
2023-09-08T23:45:47.530Z,24.20
2023-09-08T23:48:14.376Z,24.18
2023-09-08T23:50:57.515Z,24.20
2023-09-08T23:53:29.006Z,24.19
2023-09-08T23:55:56.358Z,24.16
2023-09-08T23:58:23.288Z,24.17
